Holbrook, Nebraska
Current Conditions -  °F | °C
As of 12:53 PM on Monday 20 Oct 2014 (Local Time) from KMCK Reporting Station
Clear Clear  
Wind Chill: 70°   Ceiling: Unl
Heat Index: 70°   Visibility: 10mi
Dew Point: 46°   Wind: 6mph
Humidity: 42%   Direction: 200°SSW
Pressure: 30.15"   Gusts: NA
Location:  40.3°N, 100.01°W
Report Text: KMCK 201753Z AUTO 20005KT 10SM CLR 21/08 A3015 RMK AO2 SLP202 T02110078 10211 20033 58002
Loading
Personal Weather Stations






























Interactive Weather Map
Tropical Storm Tracking
New forecast layout! Learn more

10-Day Weather Forecast

Advertisements
Track Severe Weather on mobile